Time;durP1;ratioP1;P1;durP2;ratioP2;P2;SDS_P1;SDS_P2;PMS_P1;PMS_P2;Temp;Humidity;BMP_temperature;BMP_pressure;BME280_temperature;BME280_humidity;BME280_pressure;Samples;Min_cycle;Max_cycle;Signal;HPM_P1;HPM_P2
2020/12/07 00:02:22;;;;;;;0.85;0.57;;;;;;;-7.25;87.32;102578.96;1787516;79;21134;-48
2020/12/07 00:04:50;;;;;;;0.55;0.55;;;;;;;-7.24;87.53;102564.25;1787694;80;21211;-48
2020/12/07 00:07:17;;;;;;;0.80;0.72;;;;;;;-7.18;87.49;102574.91;1787687;80;21103;-49
2020/12/07 00:09:47;;;;;;;0.10;0.10;;;;;;;-7.15;87.30;102563.56;1787639;79;21240;-48
2020/12/07 00:12:14;;;;;;;0.82;0.82;;;;;;;-7.13;87.18;102564.78;1787608;79;21151;-49
2020/12/07 00:14:42;;;;;;;0.33;0.33;;;;;;;-7.14;87.15;102560.45;1787613;80;21150;-49
2020/12/07 00:17:09;;;;;;;0.98;0.42;;;;;;;-7.14;87.08;102555.13;1787658;79;21119;-48
2020/12/07 00:19:36;;;;;;;0.20;0.20;;;;;;;-7.15;86.86;102558.73;1787518;80;21091;-46
2020/12/07 00:22:05;;;;;;;0.72;0.72;;;;;;;-7.15;86.79;102553.42;1809425;78;21131;-46
2020/12/07 00:24:32;;;;;;;0.10;0.10;;;;;;;-7.17;86.85;102552.67;1819886;78;21504;-46
2020/12/07 00:26:59;;;;;;;0.10;0.10;;;;;;;-7.18;86.90;102545.67;1819711;78;21127;-47
2020/12/07 00:29:28;;;;;;;0.10;0.10;;;;;;;-7.19;86.88;102552.80;1802232;78;21142;-46
2020/12/07 00:31:57;;;;;;;0.10;0.10;;;;;;;-7.21;86.80;102548.56;1758078;80;21143;-47
2020/12/07 00:34:24;;;;;;;0.37;0.37;;;;;;;-7.23;86.74;102555.30;1758808;80;21099;-46
2020/12/07 00:36:52;;;;;;;1.10;1.00;;;;;;;-7.26;86.82;102556.86;1787024;80;21613;-48
2020/12/07 00:39:19;;;;;;;0.10;0.10;;;;;;;-7.26;86.70;102565.33;1787137;80;21705;-46
2020/12/07 00:41:46;;;;;;;0.10;0.10;;;;;;;-7.28;86.61;102561.44;1787064;79;21190;-45
2020/12/07 00:44:14;;;;;;;0.10;0.10;;;;;;;-7.27;86.71;102557.84;1787025;80;21561;-46
2020/12/07 00:46:42;;;;;;;0.10;0.10;;;;;;;-7.26;86.75;102556.02;1787276;80;21470;-46
2020/12/07 00:49:09;;;;;;;0.10;0.10;;;;;;;-7.25;86.78;102560.36;1737467;81;21114;-47
2020/12/07 00:51:37;;;;;;;0.10;0.10;;;;;;;-7.26;86.50;102566.65;1765274;81;21173;-47
2020/12/07 00:54:04;;;;;;;0.53;0.53;;;;;;;-7.28;86.45;102557.94;1787679;80;21127;-46
2020/12/07 00:56:32;;;;;;;0.10;0.10;;;;;;;-7.29;86.36;102556.22;1787347;80;21506;-48
2020/12/07 00:59:00;;;;;;;0.30;0.30;;;;;;;-7.31;86.21;102566.14;1787700;79;21111;-46
2020/12/07 01:01:27;;;;;;;1.00;1.00;;;;;;;-7.31;86.39;102558.17;1787331;79;21927;-46
2020/12/07 01:03:55;;;;;;;0.20;0.20;;;;;;;-7.30;86.53;102558.03;1787505;79;21142;-46
2020/12/07 01:06:30;;;;;;;0.10;0.10;;;;;;;-7.26;86.34;102550.70;1787527;79;21146;-46
2020/12/07 01:08:59;;;;;;;0.10;0.10;;;;;;;-7.26;86.21;102538.75;1759041;80;21176;-45
2020/12/07 01:11:27;;;;;;;0.10;0.10;;;;;;;-7.27;86.30;102529.06;1787589;80;21154;-46
2020/12/07 01:13:54;;;;;;;0.10;0.10;;;;;;;-7.27;86.42;102535.71;1787696;80;21169;-46
2020/12/07 01:16:22;;;;;;;0.10;0.10;;;;;;;-7.29;86.10;102535.84;1787338;80;21143;-46
2020/12/07 01:18:51;;;;;;;0.25;0.25;;;;;;;-7.31;86.07;102539.09;1787577;80;21165;-46
2020/12/07 01:21:19;;;;;;;0.10;0.10;;;;;;;-7.33;86.29;102534.84;1776330;80;21221;-46
2020/12/07 01:23:47;;;;;;;0.00;0.00;;;;;;;-7.32;86.27;102533.88;1756579;81;21150;-47
2020/12/07 01:26:15;;;;;;;0.10;0.10;;;;;;;-7.35;86.19;102533.12;1728655;81;21274;-47
2020/12/07 01:28:43;;;;;;;0.23;0.20;;;;;;;-7.40;86.08;102535.27;1756435;81;21134;-46
2020/12/07 01:31:11;;;;;;;0.33;0.33;;;;;;;-7.43;86.25;102539.48;1756513;81;21462;-46
2020/12/07 01:33:39;;;;;;;0.20;0.20;;;;;;;-7.48;86.13;102538.97;1728758;81;21126;-45
2020/12/07 01:36:06;;;;;;;0.20;0.20;;;;;;;-7.55;86.15;102545.67;1735038;82;21157;-46
2020/12/07 01:38:34;;;;;;;0.10;0.10;;;;;;;-7.63;86.14;102543.57;1698083;83;21158;-46
2020/12/07 01:41:01;;;;;;;0.10;0.10;;;;;;;-7.70;86.12;102545.45;1729370;81;22095;-46
2020/12/07 01:43:30;;;;;;;0.00;0.00;;;;;;;-7.77;86.41;102545.50;1733693;81;21118;-49
2020/12/07 01:45:58;;;;;;;0.10;0.10;;;;;;;-7.82;86.40;102557.77;1759375;81;21147;-48
2020/12/07 01:48:27;;;;;;;0.10;0.10;;;;;;;-7.87;86.49;102556.76;1734345;81;21569;-49
2020/12/07 01:50:55;;;;;;;0.20;0.20;;;;;;;-7.91;86.47;102559.28;1759403;81;21694;-49
2020/12/07 01:53:23;;;;;;;0.20;0.20;;;;;;;-7.96;86.44;102564.06;1759312;80;21199;-48
2020/12/07 01:55:51;;;;;;;0.10;0.10;;;;;;;-8.01;86.44;102567.48;1759183;81;21146;-49
2020/12/07 01:58:19;;;;;;;0.33;0.33;;;;;;;-8.03;86.51;102559.64;1720034;81;21591;-48
2020/12/07 02:00:47;;;;;;;0.20;0.20;;;;;;;-8.04;86.68;102565.05;1759463;81;21114;-49
2020/12/07 02:03:15;;;;;;;0.10;0.10;;;;;;;-8.07;86.54;102558.15;1759406;81;21162;-49
2020/12/07 02:05:43;;;;;;;0.10;0.10;;;;;;;-8.10;86.58;102554.39;1759330;81;21569;-49
2020/12/07 02:08:18;;;;;;;0.10;0.10;;;;;;;-8.12;86.61;102555.45;1759269;81;21580;-50
2020/12/07 02:11:01;;;;;;;0.10;0.10;;;;;;;-8.14;86.38;102550.72;1758559;81;21127;-49
2020/12/07 02:13:30;;;;;;;0.20;0.20;;;;;;;-8.20;86.23;102556.46;1734473;81;21110;-48
2020/12/07 02:15:58;;;;;;;0.57;0.37;;;;;;;-8.27;86.04;102550.23;1759496;81;21214;-49
2020/12/07 02:18:27;;;;;;;0.10;0.10;;;;;;;-8.29;86.21;102552.14;1759044;81;21161;-48
2020/12/07 02:20:56;;;;;;;0.10;0.10;;;;;;;-8.28;86.24;102551.69;1759253;81;21155;-49
2020/12/07 02:23:45;;;;;;;0.10;0.10;;;;;;;-8.29;86.10;102553.46;1848399;76;23283;-46
2020/12/07 02:26:15;;;;;;;0.10;0.10;;;;;;;-8.35;85.98;102551.24;1793393;78;21110;-45
2020/12/07 02:28:43;;;;;;;0.00;0.00;;;;;;;-8.37;86.01;102555.80;1755749;80;21075;-46
2020/12/07 02:31:12;;;;;;;0.10;0.10;;;;;;;-8.37;86.26;102561.58;1785937;78;21133;-45
2020/12/07 02:33:40;;;;;;;0.10;0.10;;;;;;;-8.37;86.12;102559.78;1786014;80;21098;-46
2020/12/07 02:36:09;;;;;;;0.33;0.33;;;;;;;-8.39;86.11;102554.23;1755620;80;21102;-45
2020/12/07 02:38:38;;;;;;;0.10;0.10;;;;;;;-8.42;86.14;102549.99;1785972;80;21142;-46
2020/12/07 02:41:06;;;;;;;0.10;0.10;;;;;;;-8.44;86.23;102558.52;1755612;80;21217;-45
2020/12/07 02:43:35;;;;;;;0.10;0.10;;;;;;;-8.44;86.26;102559.84;1786035;80;21173;-46
2020/12/07 02:46:02;;;;;;;0.10;0.10;;;;;;;-8.44;86.33;102557.20;1786073;78;21985;-45
2020/12/07 02:48:31;;;;;;;0.10;0.10;;;;;;;-8.41;86.48;102550.35;1755639;80;21141;-47
2020/12/07 02:51:00;;;;;;;0.10;0.10;;;;;;;-8.39;86.38;102546.28;1785705;78;21146;-45
2020/12/07 02:53:30;;;;;;;0.10;0.10;;;;;;;-8.39;86.38;102541.78;1786025;80;21134;-46
2020/12/07 02:55:59;;;;;;;0.10;0.10;;;;;;;-8.39;86.32;102543.11;1785804;78;21134;-45
2020/12/07 02:58:27;;;;;;;0.10;0.10;;;;;;;-8.37;86.43;102553.62;1785937;80;21584;-47
2020/12/07 03:00:57;;;;;;;0.10;0.10;;;;;;;-8.39;86.40;102544.44;1784477;78;21122;-45
2020/12/07 03:03:25;;;;;;;0.68;0.68;;;;;;;-8.38;86.19;102560.74;1777899;80;21411;-45
2020/12/07 03:05:53;;;;;;;0.10;0.10;;;;;;;-8.38;86.16;102554.11;1743087;81;21166;-45
2020/12/07 03:08:20;;;;;;;0.70;0.70;;;;;;;-8.38;85.99;102562.06;1764461;81;21146;-45
2020/12/07 03:10:49;;;;;;;0.10;0.10;;;;;;;-8.38;85.87;102551.45;1777048;80;21134;-46
2020/12/07 03:13:17;;;;;;;0.00;0.00;;;;;;;-8.37;85.98;102569.05;1785804;80;21177;-46
2020/12/07 03:15:46;;;;;;;0.30;0.30;;;;;;;-8.37;86.02;102561.10;1784495;78;21434;-45
2020/12/07 03:18:15;;;;;;;1.45;0.80;;;;;;;-8.39;85.63;102559.02;1786043;80;21112;-45
2020/12/07 03:20:45;;;;;;;0.08;0.08;;;;;;;-8.44;85.81;102563.34;1784444;78;21600;-46
2020/12/07 03:23:12;;;;;;;0.10;0.10;;;;;;;-8.46;85.74;102556.44;1789976;80;21114;-45
2020/12/07 03:25:41;;;;;;;0.10;0.10;;;;;;;-8.46;85.81;102559.94;1765840;80;21516;-45
2020/12/07 03:28:09;;;;;;;0.10;0.10;;;;;;;-8.48;85.86;102567.17;1790051;80;21611;-46
2020/12/07 03:30:37;;;;;;;0.10;0.10;;;;;;;-8.48;85.88;102564.52;1791605;78;21141;-46
2020/12/07 03:33:04;;;;;;;0.10;0.10;;;;;;;-8.50;85.79;102569.07;1791400;80;20975;-47
2020/12/07 03:35:33;;;;;;;0.13;0.13;;;;;;;-8.51;85.66;102569.16;1790886;78;21728;-49
2020/12/07 03:38:02;;;;;;;0.00;0.00;;;;;;;-8.56;85.76;102568.14;1791051;80;21480;-47
2020/12/07 03:40:33;;;;;;;2.60;0.75;;;;;;;-8.56;85.78;102565.97;1764491;80;21129;-48
2020/12/07 03:43:03;;;;;;;0.10;0.10;;;;;;;-8.58;85.79;102567.42;1790914;80;21153;-49
2020/12/07 03:45:32;;;;;;;0.00;0.00;;;;;;;-8.60;85.82;102560.04;1791071;78;21117;-48
2020/12/07 03:48:00;;;;;;;0.10;0.10;;;;;;;-8.60;85.85;102567.12;1765077;80;21149;-48
2020/12/07 03:50:28;;;;;;;0.20;0.20;;;;;;;-8.61;85.96;102564.11;1791427;78;21126;-49
2020/12/07 03:52:56;;;;;;;0.10;0.10;;;;;;;-8.62;85.71;102561.09;1791451;80;21383;-48
2020/12/07 03:55:25;;;;;;;0.10;0.10;;;;;;;-8.63;85.76;102561.55;1791411;78;21149;-48
2020/12/07 03:57:54;;;;;;;0.25;0.25;;;;;;;-8.66;85.78;102564.41;1791213;80;21193;-50
2020/12/07 04:00:22;;;;;;;0.20;0.20;;;;;;;-8.69;85.84;102554.86;1791613;78;21126;-48
2020/12/07 04:03:04;;;;;;;0.10;0.10;;;;;;;-8.67;85.65;102556.94;1847919;76;23340;-48
2020/12/07 04:05:36;;;;;;;0.10;0.10;;;;;;;-8.74;85.69;102559.62;1802906;78;21141;-48
2020/12/07 04:08:02;;;;;;;0.10;0.10;;;;;;;-8.75;85.82;102555.73;1785881;80;21181;-48
2020/12/07 04:10:30;;;;;;;0.20;0.20;;;;;;;-8.77;85.90;102562.48;1786003;78;21461;-48
2020/12/07 04:12:58;;;;;;;0.08;0.08;;;;;;;-8.77;85.81;102565.13;1786155;80;21125;-48
2020/12/07 04:15:27;;;;;;;0.10;0.10;;;;;;;-8.78;85.80;102562.09;1786129;78;21165;-48
2020/12/07 04:17:54;;;;;;;0.10;0.10;;;;;;;-8.79;85.64;102562.21;1786122;80;21110;-48
2020/12/07 04:20:22;;;;;;;0.10;0.10;;;;;;;-8.79;85.57;102563.05;1786156;78;21126;-49
2020/12/07 04:22:50;;;;;;;0.10;0.10;;;;;;;-8.80;85.57;102558.72;1786054;80;21133;-48
2020/12/07 04:25:18;;;;;;;0.10;0.10;;;;;;;-8.82;85.60;102554.47;1786259;80;21596;-48
2020/12/07 04:27:46;;;;;;;0.17;0.17;;;;;;;-8.81;85.73;102550.38;1786202;80;21425;-48
2020/12/07 04:30:13;;;;;;;0.20;0.20;;;;;;;-8.83;85.65;102550.94;1786023;80;21517;-48
2020/12/07 04:32:41;;;;;;;0.88;0.57;;;;;;;-8.83;85.53;102559.37;1785989;80;21129;-50
2020/12/07 04:35:08;;;;;;;0.10;0.10;;;;;;;-8.87;85.56;102570.67;1785866;80;21169;-48
2020/12/07 04:37:36;;;;;;;0.10;0.10;;;;;;;-8.87;85.47;102562.72;1785824;80;21585;-48
2020/12/07 04:40:04;;;;;;;0.10;0.10;;;;;;;-8.86;85.62;102565.73;1786007;80;21144;-49
2020/12/07 04:42:31;;;;;;;0.10;0.10;;;;;;;-8.84;85.64;102570.94;1786001;80;21137;-49
2020/12/07 04:44:59;;;;;;;0.15;0.15;;;;;;;-8.87;85.74;102562.72;1785663;80;21157;-47
2020/12/07 04:47:26;;;;;;;0.10;0.10;;;;;;;-8.90;85.62;102557.59;1704273;81;21202;-49
2020/12/07 04:49:54;;;;;;;0.00;0.00;;;;;;;-8.91;85.56;102573.97;1764399;81;21167;-48
2020/12/07 04:52:22;;;;;;;0.20;0.20;;;;;;;-8.92;85.56;102567.47;1764468;81;21146;-49
2020/12/07 04:54:49;;;;;;;0.08;0.08;;;;;;;-8.92;85.61;102563.50;1774446;78;21177;-48
2020/12/07 04:57:17;;;;;;;0.28;0.28;;;;;;;-8.91;85.53;102566.51;1755903;80;21117;-49
2020/12/07 04:59:44;;;;;;;0.10;0.10;;;;;;;-8.93;85.55;102564.43;1755693;78;21098;-48
2020/12/07 05:02:12;;;;;;;0.45;0.45;;;;;;;-8.95;85.62;102555.72;1756083;80;21156;-48
2020/12/07 05:04:39;;;;;;;8.38;0.68;;;;;;;-8.94;85.49;102564.06;1786078;78;21130;-48
2020/12/07 05:07:10;;;;;;;0.20;0.20;;;;;;;-8.95;85.56;102567.64;1786090;80;21094;-48
2020/12/07 05:09:39;;;;;;;;;;;;;;;-8.97;85.61;102553.67;1788703;78;21595;-49
2020/12/07 05:14:44;;;;;;;0.30;0.30;;;;;;;-8.96;85.85;102552.71;1843611;76;22727;-46
2020/12/07 05:17:15;;;;;;;0.30;0.30;;;;;;;-8.99;85.98;102563.52;1785804;80;21110;-46
2020/12/07 05:19:43;;;;;;;0.10;0.10;;;;;;;-8.97;86.03;102567.77;1785829;78;21133;-45
2020/12/07 05:22:16;;;;;;;0.10;0.10;;;;;;;-8.97;85.86;102572.22;1785942;80;21158;-47
2020/12/07 05:24:49;;;;;;;0.10;0.10;;;;;;;-8.98;85.78;102573.16;1779953;78;21306;-45
2020/12/07 05:27:21;;;;;;;;;;;;;;;-8.99;85.91;102570.14;1788371;80;21106;-46
2020/12/07 05:32:34;;;;;;;0.10;0.10;;;;;;;-8.95;86.19;102562.34;1879278;75;22674;-45
2020/12/07 05:35:04;;;;;;;0.10;0.10;;;;;;;-9.01;86.18;102564.09;1831838;77;21533;-45
2020/12/07 05:37:36;;;;;;;3.15;0.30;;;;;;;-9.01;86.27;102552.17;1858707;77;21130;-46
2020/12/07 05:40:11;;;;;;;0.20;0.20;;;;;;;-9.02;86.23;102556.63;1858748;77;21149;-47
2020/12/07 05:42:38;;;;;;;0.10;0.10;;;;;;;-9.01;86.38;102558.79;1855851;77;21138;-47
2020/12/07 05:45:07;;;;;;;0.10;0.10;;;;;;;-9.02;86.19;102565.89;1858519;77;21137;-45
2020/12/07 05:47:37;;;;;;;0.10;0.10;;;;;;;-9.04;86.23;102563.81;1851079;77;21134;-45
2020/12/07 05:50:08;;;;;;;0.10;0.10;;;;;;;-9.06;86.16;102562.22;1824901;77;21608;-48
2020/12/07 05:52:51;;;;;;;0.10;0.10;;;;;;;-9.07;86.11;102557.40;1824078;77;20941;-48
2020/12/07 05:55:20;;;;;;;0.10;0.10;;;;;;;-9.08;86.13;102550.38;1823348;77;21166;-48
2020/12/07 05:58:06;;;;;;;0.55;0.55;;;;;;;-9.11;86.03;102553.23;1824760;78;21134;-48
2020/12/07 06:00:35;;;;;;;0.10;0.10;;;;;;;-9.12;86.17;102544.45;1824941;78;21194;-48
2020/12/07 06:03:05;;;;;;;0.10;0.10;;;;;;;-9.10;86.25;102549.17;1829134;77;21161;-48
2020/12/07 06:05:33;;;;;;;0.10;0.10;;;;;;;-9.08;86.31;102546.41;1813090;78;21253;-49
2020/12/07 06:08:07;;;;;;;0.10;0.10;;;;;;;-9.03;86.32;102546.95;1787243;79;21111;-48
2020/12/07 06:10:40;;;;;;;0.08;0.08;;;;;;;-9.02;86.21;102540.73;1771765;79;21221;-48
2020/12/07 06:13:15;;;;;;;0.50;0.50;;;;;;;-9.00;86.17;102540.16;1780525;80;21146;-47
2020/12/07 06:15:49;;;;;;;0.10;0.10;;;;;;;-8.95;86.21;102541.16;1761043;80;21138;-49
2020/12/07 06:18:36;;;;;;;0.10;0.10;;;;;;;-8.92;86.07;102535.67;1761619;80;21147;-48
2020/12/07 06:21:13;;;;;;;0.10;0.10;;;;;;;-8.86;86.12;102544.53;1791797;80;21142;-48
2020/12/07 06:23:41;;;;;;;0.25;0.25;;;;;;;-8.84;86.13;102534.69;1746588;81;21468;-48
2020/12/07 06:26:12;;;;;;;0.05;0.05;;;;;;;-8.80;86.17;102548.12;1790875;80;21135;-50
2020/12/07 06:28:50;;;;;;;0.10;0.10;;;;;;;-8.74;86.11;102534.92;1847287;76;22728;-46
2020/12/07 06:31:20;;;;;;;0.10;0.10;;;;;;;-8.76;86.07;102538.98;1792642;78;21165;-47
2020/12/07 06:33:53;;;;;;;0.10;0.10;;;;;;;-8.70;86.10;102539.92;1779122;80;21122;-46
2020/12/07 06:36:34;;;;;;;0.10;0.10;;;;;;;-8.66;86.12;102545.37;1779786;80;21137;-45
2020/12/07 06:39:10;;;;;;;0.10;0.10;;;;;;;-8.59;86.12;102550.28;1784521;78;21133;-47
2020/12/07 06:41:44;;;;;;;0.10;0.10;;;;;;;-8.53;86.09;102539.25;1785500;80;21130;-47
2020/12/07 06:44:14;;;;;;;0.00;0.00;;;;;;;-8.45;85.91;102543.58;1785258;80;21106;-47
2020/12/07 06:47:08;;;;;;;2.60;0.42;;;;;;;-8.40;85.85;102545.44;1784356;80;21166;-47
2020/12/07 06:52:16;;;;;;;0.00;0.00;;;;;;;-8.28;85.60;102542.40;1886799;74;23180;-46
2020/12/07 06:57:49;;;;;;;0.28;0.28;;;;;;;-8.28;85.41;102536.61;1820764;77;21205;-46
2020/12/07 07:00:24;;;;;;;0.70;0.70;;;;;;;-8.25;85.02;102535.55;1820042;78;21155;-46
2020/12/07 07:02:55;;;;;;;0.10;0.10;;;;;;;-8.20;84.84;102535.23;1820225;78;21511;-46
2020/12/07 07:05:24;;;;;;;0.10;0.10;;;;;;;-8.17;84.88;102535.02;1820358;77;21111;-47
2020/12/07 07:07:53;;;;;;;0.10;0.10;;;;;;;-8.14;84.66;102540.95;1822407;77;21089;-47
2020/12/07 07:10:23;;;;;;;0.10;0.10;;;;;;;-8.12;84.62;102541.70;1820865;77;21116;-46
2020/12/07 07:12:51;;;;;;;0.20;0.20;;;;;;;-8.08;84.55;102535.72;1757767;81;21760;-47
2020/12/07 07:15:20;;;;;;;0.00;0.00;;;;;;;-8.05;84.24;102542.13;1754066;81;21158;-48
2020/12/07 07:17:48;;;;;;;0.80;0.45;;;;;;;-8.04;84.18;102537.19;1794019;79;21502;-47
2020/12/07 07:20:16;;;;;;;0.10;0.10;;;;;;;-8.03;84.20;102549.52;1794136;79;21154;-47
2020/12/07 07:22:46;;;;;;;0.50;0.50;;;;;;;-8.02;83.93;102539.26;1793957;79;21115;-47
2020/12/07 07:30:28;;;;;;;0.10;0.10;;;;;;;-7.93;83.70;102533.31;1771156;79;21151;-47
2020/12/07 07:32:56;;;;;;;0.10;0.10;;;;;;;-7.93;83.55;102534.64;1770981;79;21814;-47
2020/12/07 07:35:29;;;;;;;0.13;0.13;;;;;;;-7.91;83.55;102525.23;1762314;81;21462;-48
2020/12/07 07:37:57;;;;;;;0.10;0.10;;;;;;;-7.89;83.48;102532.13;1762139;79;21155;-48
2020/12/07 07:40:27;;;;;;;0.10;0.10;;;;;;;-7.85;83.42;102533.62;1768283;79;21172;-47
2020/12/07 07:42:57;;;;;;;0.05;0.05;;;;;;;-7.80;83.58;102531.48;1762379;81;21135;-47
2020/12/07 07:45:31;;;;;;;0.10;0.10;;;;;;;-7.73;83.40;102533.72;1762958;79;21143;-47
2020/12/07 08:18:09;;;;;;;0.10;0.10;;;;;;;-7.18;81.18;102501.34;1839033;76;24146;-45
2020/12/07 08:20:50;;;;;;;0.10;0.10;;;;;;;-7.17;81.09;102514.15;1801307;78;21469;-45
2020/12/07 08:23:25;;;;;;;0.10;0.10;;;;;;;-7.15;80.63;102502.45;1785648;80;21142;-50
2020/12/07 08:25:52;;;;;;;0.10;0.10;;;;;;;-7.11;80.90;102503.57;1781170;80;21166;-49
2020/12/07 08:28:24;;;;;;;0.00;0.00;;;;;;;-7.06;80.88;102499.60;1785555;80;21161;-46
2020/12/07 08:31:17;;;;;;;0.40;0.40;;;;;;;-7.04;80.28;102506.14;1785764;78;21165;-46
2020/12/07 08:34:10;;;;;;;0.10;0.10;;;;;;;-7.00;80.44;102496.47;1785672;80;21114;-47
2020/12/07 08:36:35;;;;;;;0.10;0.10;;;;;;;-6.96;80.24;102497.95;1783488;80;21137;-47
2020/12/07 08:39:04;;;;;;;0.10;0.10;;;;;;;-6.93;79.80;102497.71;1785358;80;21146;-46
2020/12/07 08:41:32;;;;;;;0.10;0.10;;;;;;;-6.93;79.78;102491.55;1785668;78;21130;-47
2020/12/07 08:44:08;;;;;;;0.47;0.47;;;;;;;-6.93;79.99;102486.23;1785670;80;21125;-47
2020/12/07 08:46:39;;;;;;;0.10;0.10;;;;;;;-6.90;79.37;102486.00;1785753;78;21118;-46
2020/12/07 08:49:06;;;;;;;0.00;0.00;;;;;;;-6.89;79.61;102473.58;1785604;80;21544;-46
2020/12/07 08:51:36;;;;;;;0.10;0.10;;;;;;;-6.88;79.13;102472.12;1784509;78;21154;-49
2020/12/07 08:54:04;;;;;;;0.10;0.10;;;;;;;-6.88;79.38;102462.81;1785626;80;21086;-49
2020/12/07 08:56:32;;;;;;;0.10;0.10;;;;;;;-6.84;79.29;102470.09;1785494;78;21186;-50
2020/12/07 08:58:59;;;;;;;0.23;0.23;;;;;;;-6.82;79.42;102468.17;1785338;80;21125;-49
2020/12/07 09:01:27;;;;;;;0.70;0.70;;;;;;;-6.78;79.52;102449.19;1771200;78;21197;-49
2020/12/07 09:03:54;;;;;;;0.30;0.30;;;;;;;-6.73;79.39;102451.50;1772574;80;21437;-49
2020/12/07 09:06:22;;;;;;;0.53;0.53;;;;;;;-6.64;79.14;102461.92;1776607;78;21595;-49
2020/12/07 09:08:50;;;;;;;0.10;0.10;;;;;;;-6.64;79.14;102461.92;1732759;82;21154;-49
2020/12/07 09:11:18;;;;;;;0.10;0.10;;;;;;;-6.64;78.81;102453.95;1737031;80;21194;-49
2020/12/07 09:13:46;;;;;;;0.30;0.30;;;;;;;-6.63;78.83;102447.66;1785176;80;21437;-50
2020/12/07 09:16:14;;;;;;;0.10;0.10;;;;;;;-6.62;78.55;102460.84;1785481;80;21133;-49
2020/12/07 09:18:41;;;;;;;0.10;0.10;;;;;;;-6.62;78.57;102444.05;1791433;80;21188;-49
2020/12/07 09:21:09;;;;;;;0.10;0.10;;;;;;;-6.60;78.68;102449.61;1791312;78;21181;-48
2020/12/07 09:23:38;;;;;;;0.03;0.03;;;;;;;-6.55;78.79;102438.13;1791241;80;21149;-49
2020/12/07 09:26:06;;;;;;;0.00;0.00;;;;;;;-6.52;78.43;102429.91;1791372;80;21129;-49
2020/12/07 09:28:35;;;;;;;1.30;0.75;;;;;;;-6.49;78.40;102427.00;1790487;80;21172;-49
2020/12/07 09:31:04;;;;;;;0.40;0.40;;;;;;;-6.48;78.49;102415.88;1790856;78;21587;-49
2020/12/07 09:33:35;;;;;;;0.03;0.03;;;;;;;-6.48;78.27;102413.21;1790731;80;21122;-50
2020/12/07 09:36:03;;;;;;;0.00;0.00;;;;;;;-6.49;78.08;102407.05;1790600;78;21129;-48
2020/12/07 09:38:32;;;;;;;0.47;0.47;;;;;;;-6.47;78.22;102414.92;1791036;80;21197;-48
2020/12/07 09:40:59;;;;;;;0.13;0.08;;;;;;;-6.45;78.40;102408.14;1790774;78;21151;-49
2020/12/07 09:43:27;;;;;;;0.10;0.10;;;;;;;-6.43;78.56;102398.23;1789491;80;21114;-49
2020/12/07 09:45:55;;;;;;;0.80;0.80;;;;;;;-6.39;78.77;102392.55;1785259;78;21548;-48
2020/12/07 09:48:23;;;;;;;0.10;0.10;;;;;;;-6.36;78.63;102403.43;1799205;78;21102;-49
2020/12/07 09:50:50;;;;;;;0.10;0.10;;;;;;;-6.32;78.72;102395.09;1787546;80;21882;-48
2020/12/07 09:53:19;;;;;;;0.25;0.25;;;;;;;-6.28;78.52;102405.00;1791133;80;21149;-49
2020/12/07 09:55:47;;;;;;;0.10;0.10;;;;;;;-6.27;78.37;102400.05;1734863;81;21121;-49
2020/12/07 09:58:15;;;;;;;0.10;0.10;;;;;;;-6.28;78.34;102389.91;1791428;80;21106;-49
2020/12/07 10:00:42;;;;;;;0.10;0.10;;;;;;;-6.28;78.03;102389.91;1777913;78;21177;-49
2020/12/07 10:03:10;;;;;;;0.10;0.10;;;;;;;-6.26;78.44;102391.09;1790777;80;21197;-49
2020/12/07 10:05:38;;;;;;;0.33;0.33;;;;;;;-6.27;78.30;102384.09;1727591;82;20993;-49
2020/12/07 10:08:05;;;;;;;0.72;0.47;;;;;;;-6.25;78.14;102375.50;1782608;80;21145;-46
2020/12/07 10:10:33;;;;;;;0.10;0.10;;;;;;;-6.24;77.62;102381.67;1791444;78;21133;-46
2020/12/07 10:13:03;;;;;;;0.00;0.00;;;;;;;-6.22;77.88;102366.43;1761724;80;21562;-46
2020/12/07 10:15:30;;;;;;;0.10;0.10;;;;;;;-6.21;77.79;102362.78;1766833;80;21030;-46
2020/12/07 10:17:58;;;;;;;0.20;0.20;;;;;;;-6.23;77.23;102360.27;1790992;79;21125;-46
2020/12/07 10:20:25;;;;;;;0.10;0.10;;;;;;;-6.19;77.62;102355.05;1790627;78;21122;-46
2020/12/07 10:22:52;;;;;;;0.10;0.10;;;;;;;-6.16;77.86;102360.60;1790600;80;21125;-46
2020/12/07 10:25:20;;;;;;;0.55;0.55;;;;;;;-6.14;77.91;102356.01;1788749;78;21110;-47
2020/12/07 10:27:48;;;;;;;0.05;0.05;;;;;;;-6.13;78.03;102352.36;1791776;78;21126;-46
2020/12/07 10:30:15;;;;;;;0.10;0.10;;;;;;;-6.10;77.97;102363.62;1788588;78;21125;-46
2020/12/07 10:32:43;;;;;;;0.10;0.10;;;;;;;-6.11;77.83;102356.63;1790588;80;21117;-46
2020/12/07 10:35:10;;;;;;;0.00;0.00;;;;;;;-6.13;77.34;102358.55;1790575;80;21417;-47
2020/12/07 10:37:37;;;;;;;0.62;0.55;;;;;;;-6.11;77.47;102349.97;1790613;80;21564;-47
2020/12/07 10:40:05;;;;;;;0.10;0.10;;;;;;;-6.09;77.57;102341.35;1790662;80;21552;-47
2020/12/07 10:42:32;;;;;;;0.37;0.37;;;;;;;-6.08;77.51;102342.22;1790644;80;21110;-47
2020/12/07 10:45:01;;;;;;;0.10;0.10;;;;;;;-6.04;77.52;102348.13;1790605;80;21137;-47
2020/12/07 10:47:29;;;;;;;0.10;0.10;;;;;;;-6.01;77.54;102338.55;1757747;81;21177;-45
2020/12/07 10:49:56;;;;;;;0.10;0.10;;;;;;;-6.01;77.76;102339.89;1757801;81;21133;-47
2020/12/07 10:52:24;;;;;;;0.10;0.10;;;;;;;-6.00;77.67;102341.59;1757676;81;21588;-47
2020/12/07 10:54:51;;;;;;;1.85;0.85;;;;;;;-5.96;77.28;102337.70;1757717;81;21188;-46
2020/12/07 10:57:19;;;;;;;0.10;0.10;;;;;;;-5.95;76.89;102332.75;1757720;81;21166;-46
2020/12/07 10:59:46;;;;;;;0.17;0.17;;;;;;;-5.91;77.42;102327.48;1757734;81;21205;-47
2020/12/07 11:02:14;;;;;;;0.40;0.40;;;;;;;-5.89;77.38;102320.22;1759098;80;21534;-47
2020/12/07 11:04:41;;;;;;;0.10;0.10;;;;;;;-5.86;77.28;102330.61;1759352;80;21182;-48
2020/12/07 11:07:12;;;;;;;0.10;0.10;;;;;;;-5.84;77.40;102323.35;1759232;81;21554;-46
2020/12/07 11:09:40;;;;;;;0.10;0.10;;;;;;;-5.83;77.40;102321.06;1759252;80;21133;-46
2020/12/07 11:12:13;;;;;;;0.03;0.03;;;;;;;-5.82;77.37;102324.08;1759219;81;21688;-48
2020/12/07 11:14:36;;;;;;;0.15;0.15;;;;;;;-5.82;77.09;102313.42;1759295;80;21441;-47
2020/12/07 11:17:06;;;;;;;0.10;0.10;;;;;;;-5.81;77.21;102305.81;1774161;80;22016;-47
2020/12/07 11:19:34;;;;;;;0.05;0.05;;;;;;;-5.80;77.26;102304.83;1791228;80;21560;-47
2020/12/07 11:22:01;;;;;;;0.57;0.57;;;;;;;-5.79;77.38;102304.33;1781079;80;21153;-46
2020/12/07 11:24:28;;;;;;;0.17;0.17;;;;;;;-5.77;77.41;102305.06;1768018;80;21131;-48
2020/12/07 11:26:56;;;;;;;0.10;0.10;;;;;;;-5.74;77.53;102300.80;1791053;80;21098;-47
2020/12/07 11:29:23;;;;;;;0.10;0.10;;;;;;;-5.73;77.61;102308.67;1791207;80;21592;-48
2020/12/07 11:31:51;;;;;;;0.20;0.20;;;;;;;-5.73;77.62;102301.18;1790822;80;20987;-47
2020/12/07 11:34:21;;;;;;;0.10;0.10;;;;;;;-5.71;77.05;102290.76;1790634;79;21109;-46
2020/12/07 11:36:49;;;;;;;0.25;0.25;;;;;;;-5.69;77.20;102302.11;1785003;80;21105;-48
2020/12/07 11:44:18;;;;;;;0.00;0.00;;;;;;;-5.65;77.38;102297.38;1781278;80;21620;-49
2020/12/07 11:46:53;;;;;;;0.28;0.28;;;;;;;-5.65;77.25;102294.23;1753269;81;21577;-48
2020/12/07 11:49:14;;;;;;;0.45;0.45;;;;;;;-5.60;77.00;102302.33;1718941;83;21178;-49
2020/12/07 11:51:42;;;;;;;0.30;0.30;;;;;;;-5.59;76.51;102306.67;1734548;82;21154;-49
2020/12/07 11:54:09;;;;;;;0.10;0.10;;;;;;;-5.59;76.51;102306.67;1722798;83;21177;-49
2020/12/07 11:56:38;;;;;;;0.20;0.20;;;;;;;-5.62;76.70;102305.95;1726748;83;21126;-49
2020/12/07 11:59:09;;;;;;;0.10;0.10;;;;;;;-5.62;76.70;102305.95;1725642;83;21134;-49
2020/12/07 12:01:37;;;;;;;0.10;0.10;;;;;;;-5.59;76.91;102298.19;1705573;83;21462;-49
2020/12/07 12:04:05;;;;;;;2.15;1.95;;;;;;;-5.58;76.80;102281.75;1727106;83;21138;-49
2020/12/07 12:06:35;;;;;;;0.10;0.10;;;;;;;-5.58;76.80;102281.75;1727156;81;21480;-50
2020/12/07 12:09:05;;;;;;;0.33;0.33;;;;;;;-5.55;77.08;102294.80;1726814;83;21149;-48
2020/12/07 12:11:35;;;;;;;0.68;0.68;;;;;;;-5.55;77.08;102294.80;1726858;83;21465;-46
2020/12/07 12:14:04;;;;;;;0.20;0.20;;;;;;;-5.54;76.70;102293.81;1725168;83;21137;-47
2020/12/07 12:16:32;;;;;;;0.30;0.30;;;;;;;-5.54;76.70;102293.81;1719899;81;21122;-46
2020/12/07 12:19:03;;;;;;;0.15;0.15;;;;;;;-5.50;76.71;102295.25;1715062;83;21161;-47
2020/12/07 12:21:30;;;;;;;0.28;0.28;;;;;;;-5.48;76.35;102292.82;1720205;81;21668;-47
2020/12/07 12:24:01;;;;;;;3.30;0.40;;;;;;;-5.50;76.59;102281.44;1723760;83;21130;-46
2020/12/07 12:26:28;;;;;;;0.10;0.10;;;;;;;-5.47;76.46;102285.17;1731434;81;21493;-46
2020/12/07 12:28:56;;;;;;;0.10;0.10;;;;;;;-5.49;76.56;102280.95;1732171;82;21139;-47